sensor_id;sensor_type;location;lat;lon;timestamp;temperature;humidity
12006;DHT22;6062;47.294;12.182;2022-11-28T00:01:30;2.90;38.40
12006;DHT22;6062;47.294;12.182;2022-11-28T00:03:58;2.90;38.40
12006;DHT22;6062;47.294;12.182;2022-11-28T00:06:25;2.90;38.40
12006;DHT22;6062;47.294;12.182;2022-11-28T00:08:51;2.80;38.60
12006;DHT22;6062;47.294;12.182;2022-11-28T00:11:18;2.80;38.80
12006;DHT22;6062;47.294;12.182;2022-11-28T00:13:44;2.80;38.80
12006;DHT22;6062;47.294;12.182;2022-11-28T00:16:15;2.80;38.90
12006;DHT22;6062;47.294;12.182;2022-11-28T00:18:42;2.80;39.00
12006;DHT22;6062;47.294;12.182;2022-11-28T00:21:11;2.80;39.10
12006;DHT22;6062;47.294;12.182;2022-11-28T00:23:39;2.80;39.30
12006;DHT22;6062;47.294;12.182;2022-11-28T00:26:08;2.80;39.30
12006;DHT22;6062;47.294;12.182;2022-11-28T00:28:37;2.80;39.20
12006;DHT22;6062;47.294;12.182;2022-11-28T00:31:03;2.80;39.30
12006;DHT22;6062;47.294;12.182;2022-11-28T00:33:30;2.80;39.30
12006;DHT22;6062;47.294;12.182;2022-11-28T00:36:03;2.80;39.30
12006;DHT22;6062;47.294;12.182;2022-11-28T00:38:30;2.80;39.40
12006;DHT22;6062;47.294;12.182;2022-11-28T00:41:05;2.80;39.50
12006;DHT22;6062;47.294;12.182;2022-11-28T00:43:34;2.80;39.30
12006;DHT22;6062;47.294;12.182;2022-11-28T00:46:00;2.80;39.20
12006;DHT22;6062;47.294;12.182;2022-11-28T00:48:27;2.90;39.60
12006;DHT22;6062;47.294;12.182;2022-11-28T00:50:54;2.90;39.60
12006;DHT22;6062;47.294;12.182;2022-11-28T00:53:33;2.90;39.50
12006;DHT22;6062;47.294;12.182;2022-11-28T00:55:59;2.90;39.50
12006;DHT22;6062;47.294;12.182;2022-11-28T00:58:24;2.90;39.30
12006;DHT22;6062;47.294;12.182;2022-11-28T01:00:50;2.90;39.30
12006;DHT22;6062;47.294;12.182;2022-11-28T01:03:16;2.90;39.20
12006;DHT22;6062;47.294;12.182;2022-11-28T01:05:41;2.90;39.10
12006;DHT22;6062;47.294;12.182;2022-11-28T01:08:08;2.90;39.20
12006;DHT22;6062;47.294;12.182;2022-11-28T01:10:39;3.00;39.20
12006;DHT22;6062;47.294;12.182;2022-11-28T01:13:06;3.00;39.10
12006;DHT22;6062;47.294;12.182;2022-11-28T01:15:33;3.00;39.10
12006;DHT22;6062;47.294;12.182;2022-11-28T01:18:00;3.10;39.10
12006;DHT22;6062;47.294;12.182;2022-11-28T01:20:27;3.10;39.10
12006;DHT22;6062;47.294;12.182;2022-11-28T01:22:53;3.20;39.10
12006;DHT22;6062;47.294;12.182;2022-11-28T01:25:19;3.20;39.30
12006;DHT22;6062;47.294;12.182;2022-11-28T01:27:45;3.20;39.40
12006;DHT22;6062;47.294;12.182;2022-11-28T01:30:10;3.20;39.30
12006;DHT22;6062;47.294;12.182;2022-11-28T01:32:36;3.20;39.30
12006;DHT22;6062;47.294;12.182;2022-11-28T01:35:02;3.20;39.10
12006;DHT22;6062;47.294;12.182;2022-11-28T01:37:28;3.20;38.80
12006;DHT22;6062;47.294;12.182;2022-11-28T01:39:55;3.20;38.60
12006;DHT22;6062;47.294;12.182;2022-11-28T01:42:21;3.20;38.40
12006;DHT22;6062;47.294;12.182;2022-11-28T01:47:14;3.20;38.30
12006;DHT22;6062;47.294;12.182;2022-11-28T01:49:46;3.20;38.30
12006;DHT22;6062;47.294;12.182;2022-11-28T01:52:16;3.30;38.20
12006;DHT22;6062;47.294;12.182;2022-11-28T01:54:48;3.30;38.10
12006;DHT22;6062;47.294;12.182;2022-11-28T01:57:19;3.30;38.00
12006;DHT22;6062;47.294;12.182;2022-11-28T02:00:13;3.30;37.90
12006;DHT22;6062;47.294;12.182;2022-11-28T02:05:15;3.40;37.80
12006;DHT22;6062;47.294;12.182;2022-11-28T02:07:43;3.40;37.80
12006;DHT22;6062;47.294;12.182;2022-11-28T02:10:15;3.50;38.00
12006;DHT22;6062;47.294;12.182;2022-11-28T02:13:16;3.50;38.30
12006;DHT22;6062;47.294;12.182;2022-11-28T02:27:27;3.40;38.40
12006;DHT22;6062;47.294;12.182;2022-11-28T02:33:48;3.40;38.40
12006;DHT22;6062;47.294;12.182;2022-11-28T02:36:35;3.40;38.60
12006;DHT22;6062;47.294;12.182;2022-11-28T02:39:30;3.40;38.60
12006;DHT22;6062;47.294;12.182;2022-11-28T02:45:40;3.40;38.70
12006;DHT22;6062;47.294;12.182;2022-11-28T02:48:41;3.40;38.80
12006;DHT22;6062;47.294;12.182;2022-11-28T02:51:24;3.40;39.00
12006;DHT22;6062;47.294;12.182;2022-11-28T02:53:58;3.40;39.10
12006;DHT22;6062;47.294;12.182;2022-11-28T02:56:26;3.40;39.20
12006;DHT22;6062;47.294;12.182;2022-11-28T02:58:52;3.40;39.20
12006;DHT22;6062;47.294;12.182;2022-11-28T03:01:24;3.40;39.40
12006;DHT22;6062;47.294;12.182;2022-11-28T03:13:38;3.50;39.40
12006;DHT22;6062;47.294;12.182;2022-11-28T03:16:28;3.50;39.50
12006;DHT22;6062;47.294;12.182;2022-11-28T03:19:07;3.50;39.50
12006;DHT22;6062;47.294;12.182;2022-11-28T03:24:46;3.50;39.40
12006;DHT22;6062;47.294;12.182;2022-11-28T03:27:16;3.60;39.50
12006;DHT22;6062;47.294;12.182;2022-11-28T03:30:11;3.50;39.60
12006;DHT22;6062;47.294;12.182;2022-11-28T03:32:46;3.60;39.90
12006;DHT22;6062;47.294;12.182;2022-11-28T03:35:19;3.60;39.90
12006;DHT22;6062;47.294;12.182;2022-11-28T03:37:54;3.60;40.00
12006;DHT22;6062;47.294;12.182;2022-11-28T03:40:29;3.60;40.00
12006;DHT22;6062;47.294;12.182;2022-11-28T03:43:03;3.60;40.10
12006;DHT22;6062;47.294;12.182;2022-11-28T03:45:37;3.60;40.10
12006;DHT22;6062;47.294;12.182;2022-11-28T03:48:11;3.60;40.10
12006;DHT22;6062;47.294;12.182;2022-11-28T03:50:49;3.60;40.10
12006;DHT22;6062;47.294;12.182;2022-11-28T03:53:24;3.70;40.50
12006;DHT22;6062;47.294;12.182;2022-11-28T03:56:06;3.70;40.60
12006;DHT22;6062;47.294;12.182;2022-11-28T03:58:36;3.70;40.80
12006;DHT22;6062;47.294;12.182;2022-11-28T04:12:19;3.70;40.50
12006;DHT22;6062;47.294;12.182;2022-11-28T04:15:00;3.70;40.60
12006;DHT22;6062;47.294;12.182;2022-11-28T04:20:28;3.60;41.10
12006;DHT22;6062;47.294;12.182;2022-11-28T04:23:07;3.60;41.40
12006;DHT22;6062;47.294;12.182;2022-11-28T04:25:41;3.60;41.40
12006;DHT22;6062;47.294;12.182;2022-11-28T04:28:17;3.60;41.50
12006;DHT22;6062;47.294;12.182;2022-11-28T04:30:48;3.60;41.50
12006;DHT22;6062;47.294;12.182;2022-11-28T04:33:17;3.60;41.30
12006;DHT22;6062;47.294;12.182;2022-11-28T04:35:48;3.70;41.00
12006;DHT22;6062;47.294;12.182;2022-11-28T04:38:18;3.70;40.90
12006;DHT22;6062;47.294;12.182;2022-11-28T04:40:51;3.70;40.90
12006;DHT22;6062;47.294;12.182;2022-11-28T04:43:29;3.70;40.90
12006;DHT22;6062;47.294;12.182;2022-11-28T04:46:03;3.70;40.80
12006;DHT22;6062;47.294;12.182;2022-11-28T04:48:33;3.70;40.70
12006;DHT22;6062;47.294;12.182;2022-11-28T04:51:23;3.70;40.80
12006;DHT22;6062;47.294;12.182;2022-11-28T04:54:40;3.70;41.00
12006;DHT22;6062;47.294;12.182;2022-11-28T04:57:32;3.70;41.00
12006;DHT22;6062;47.294;12.182;2022-11-28T05:00:01;3.60;40.70
12006;DHT22;6062;47.294;12.182;2022-11-28T05:02:31;3.60;40.70
12006;DHT22;6062;47.294;12.182;2022-11-28T05:04:58;3.50;40.80
12006;DHT22;6062;47.294;12.182;2022-11-28T05:07:24;3.40;40.90
12006;DHT22;6062;47.294;12.182;2022-11-28T05:09:50;3.40;40.90
12006;DHT22;6062;47.294;12.182;2022-11-28T05:12:16;3.40;41.00
12006;DHT22;6062;47.294;12.182;2022-11-28T05:14:42;3.30;41.00
12006;DHT22;6062;47.294;12.182;2022-11-28T05:17:11;3.30;41.20
12006;DHT22;6062;47.294;12.182;2022-11-28T05:19:37;3.30;41.40
12006;DHT22;6062;47.294;12.182;2022-11-28T05:22:03;3.30;41.60
12006;DHT22;6062;47.294;12.182;2022-11-28T05:24:28;3.30;41.60
12006;DHT22;6062;47.294;12.182;2022-11-28T05:26:54;3.30;41.60
12006;DHT22;6062;47.294;12.182;2022-11-28T05:29:19;3.30;41.50
12006;DHT22;6062;47.294;12.182;2022-11-28T05:31:45;3.30;41.50
12006;DHT22;6062;47.294;12.182;2022-11-28T05:34:11;3.30;41.40
12006;DHT22;6062;47.294;12.182;2022-11-28T05:36:36;3.40;41.40
12006;DHT22;6062;47.294;12.182;2022-11-28T05:39:02;3.40;41.10
12006;DHT22;6062;47.294;12.182;2022-11-28T05:41:30;3.40;41.00
12006;DHT22;6062;47.294;12.182;2022-11-28T05:43:57;3.50;40.90
12006;DHT22;6062;47.294;12.182;2022-11-28T05:46:24;3.50;40.80
12006;DHT22;6062;47.294;12.182;2022-11-28T05:48:50;3.60;40.00
12006;DHT22;6062;47.294;12.182;2022-11-28T05:51:16;3.60;40.10
12006;DHT22;6062;47.294;12.182;2022-11-28T05:53:44;3.60;40.30
12006;DHT22;6062;47.294;12.182;2022-11-28T05:56:12;3.70;40.30
12006;DHT22;6062;47.294;12.182;2022-11-28T05:58:40;3.70;40.40
12006;DHT22;6062;47.294;12.182;2022-11-28T06:01:13;3.70;40.50
12006;DHT22;6062;47.294;12.182;2022-11-28T06:03:44;3.70;40.70
12006;DHT22;6062;47.294;12.182;2022-11-28T06:06:18;3.70;40.70
12006;DHT22;6062;47.294;12.182;2022-11-28T06:08:47;3.60;40.00
12006;DHT22;6062;47.294;12.182;2022-11-28T06:11:15;3.70;39.60
12006;DHT22;6062;47.294;12.182;2022-11-28T06:13:42;3.70;40.00
12006;DHT22;6062;47.294;12.182;2022-11-28T06:16:12;3.70;40.20
12006;DHT22;6062;47.294;12.182;2022-11-28T06:18:40;3.70;39.80
12006;DHT22;6062;47.294;12.182;2022-11-28T06:21:08;3.70;39.10
12006;DHT22;6062;47.294;12.182;2022-11-28T06:23:36;3.70;38.60
12006;DHT22;6062;47.294;12.182;2022-11-28T06:26:07;3.70;38.70
12006;DHT22;6062;47.294;12.182;2022-11-28T06:28:38;3.80;38.60
12006;DHT22;6062;47.294;12.182;2022-11-28T06:31:07;3.80;38.30
12006;DHT22;6062;47.294;12.182;2022-11-28T06:33:38;3.80;37.90
12006;DHT22;6062;47.294;12.182;2022-11-28T06:36:05;3.90;38.20
12006;DHT22;6062;47.294;12.182;2022-11-28T06:38:32;4.00;38.90
12006;DHT22;6062;47.294;12.182;2022-11-28T06:41:01;4.00;39.20
12006;DHT22;6062;47.294;12.182;2022-11-28T06:43:29;4.00;39.50
12006;DHT22;6062;47.294;12.182;2022-11-28T06:45:55;4.00;39.60
12006;DHT22;6062;47.294;12.182;2022-11-28T06:48:22;4.00;39.50
12006;DHT22;6062;47.294;12.182;2022-11-28T06:50:48;4.00;39.50
12006;DHT22;6062;47.294;12.182;2022-11-28T06:53:14;4.00;39.20
12006;DHT22;6062;47.294;12.182;2022-11-28T06:55:40;4.00;38.90
12006;DHT22;6062;47.294;12.182;2022-11-28T06:58:06;4.00;38.70
12006;DHT22;6062;47.294;12.182;2022-11-28T07:00:32;4.00;38.50
12006;DHT22;6062;47.294;12.182;2022-11-28T07:02:58;4.00;38.40
12006;DHT22;6062;47.294;12.182;2022-11-28T07:05:24;4.00;38.60
12006;DHT22;6062;47.294;12.182;2022-11-28T07:07:54;4.10;39.00
12006;DHT22;6062;47.294;12.182;2022-11-28T07:10:21;4.10;39.50
12006;DHT22;6062;47.294;12.182;2022-11-28T07:12:52;4.10;40.00
12006;DHT22;6062;47.294;12.182;2022-11-28T07:15:19;4.10;40.60
12006;DHT22;6062;47.294;12.182;2022-11-28T07:17:44;4.10;40.90
12006;DHT22;6062;47.294;12.182;2022-11-28T07:20:10;4.10;41.10
12006;DHT22;6062;47.294;12.182;2022-11-28T07:22:36;4.10;41.20
12006;DHT22;6062;47.294;12.182;2022-11-28T07:25:02;4.00;41.00
12006;DHT22;6062;47.294;12.182;2022-11-28T07:27:28;4.00;40.90
12006;DHT22;6062;47.294;12.182;2022-11-28T07:29:53;4.00;40.90
12006;DHT22;6062;47.294;12.182;2022-11-28T07:32:19;4.00;41.10
12006;DHT22;6062;47.294;12.182;2022-11-28T07:34:45;4.00;41.20
12006;DHT22;6062;47.294;12.182;2022-11-28T07:37:10;4.00;41.70
12006;DHT22;6062;47.294;12.182;2022-11-28T07:39:37;4.00;42.10
12006;DHT22;6062;47.294;12.182;2022-11-28T07:42:03;4.00;42.60
12006;DHT22;6062;47.294;12.182;2022-11-28T07:44:29;4.10;42.50
12006;DHT22;6062;47.294;12.182;2022-11-28T07:46:55;4.10;42.50
12006;DHT22;6062;47.294;12.182;2022-11-28T07:49:20;4.10;42.70
12006;DHT22;6062;47.294;12.182;2022-11-28T07:51:46;4.10;42.80
12006;DHT22;6062;47.294;12.182;2022-11-28T07:54:11;4.10;42.70
12006;DHT22;6062;47.294;12.182;2022-11-28T07:56:38;4.10;42.60
12006;DHT22;6062;47.294;12.182;2022-11-28T07:59:04;4.20;42.80
12006;DHT22;6062;47.294;12.182;2022-11-28T08:01:32;4.20;42.80
12006;DHT22;6062;47.294;12.182;2022-11-28T08:04:00;4.30;42.90
12006;DHT22;6062;47.294;12.182;2022-11-28T08:06:29;4.30;43.50
12006;DHT22;6062;47.294;12.182;2022-11-28T08:08:58;4.40;42.80
12006;DHT22;6062;47.294;12.182;2022-11-28T08:11:24;4.50;42.90
12006;DHT22;6062;47.294;12.182;2022-11-28T08:13:52;4.50;43.00
12006;DHT22;6062;47.294;12.182;2022-11-28T08:16:20;4.60;43.10
12006;DHT22;6062;47.294;12.182;2022-11-28T08:18:48;4.60;43.40
12006;DHT22;6062;47.294;12.182;2022-11-28T08:21:21;4.70;43.60
12006;DHT22;6062;47.294;12.182;2022-11-28T08:23:48;4.80;43.70
12006;DHT22;6062;47.294;12.182;2022-11-28T08:26:20;4.90;44.30
12006;DHT22;6062;47.294;12.182;2022-11-28T08:28:47;5.00;44.70
12006;DHT22;6062;47.294;12.182;2022-11-28T08:31:23;5.00;44.60
12006;DHT22;6062;47.294;12.182;2022-11-28T08:33:59;5.10;44.80
12006;DHT22;6062;47.294;12.182;2022-11-28T08:36:27;5.20;44.80
12006;DHT22;6062;47.294;12.182;2022-11-28T08:38:52;5.20;44.80
12006;DHT22;6062;47.294;12.182;2022-11-28T08:41:20;5.30;44.60
12006;DHT22;6062;47.294;12.182;2022-11-28T08:43:47;5.40;44.30
12006;DHT22;6062;47.294;12.182;2022-11-28T08:46:16;5.40;44.20
12006;DHT22;6062;47.294;12.182;2022-11-28T08:48:45;5.50;44.20
12006;DHT22;6062;47.294;12.182;2022-11-28T08:51:14;5.60;44.00
12006;DHT22;6062;47.294;12.182;2022-11-28T08:53:42;5.70;44.10
12006;DHT22;6062;47.294;12.182;2022-11-28T08:56:09;5.80;44.20
12006;DHT22;6062;47.294;12.182;2022-11-28T08:58:36;5.90;43.80
12006;DHT22;6062;47.294;12.182;2022-11-28T09:01:02;6.00;43.70
12006;DHT22;6062;47.294;12.182;2022-11-28T09:03:28;6.10;43.80
12006;DHT22;6062;47.294;12.182;2022-11-28T09:05:59;6.20;43.70
12006;DHT22;6062;47.294;12.182;2022-11-28T09:08:26;6.30;43.30
12006;DHT22;6062;47.294;12.182;2022-11-28T09:10:52;6.40;42.90
12006;DHT22;6062;47.294;12.182;2022-11-28T09:13:18;6.40;42.60
12006;DHT22;6062;47.294;12.182;2022-11-28T09:15:45;6.50;42.30
12006;DHT22;6062;47.294;12.182;2022-11-28T09:18:12;6.60;42.30
12006;DHT22;6062;47.294;12.182;2022-11-28T09:20:39;6.60;42.10
12006;DHT22;6062;47.294;12.182;2022-11-28T09:23:05;6.70;41.90
12006;DHT22;6062;47.294;12.182;2022-11-28T09:25:37;6.70;41.90
12006;DHT22;6062;47.294;12.182;2022-11-28T09:28:04;6.80;42.20
12006;DHT22;6062;47.294;12.182;2022-11-28T09:30:31;6.80;42.50
12006;DHT22;6062;47.294;12.182;2022-11-28T09:32:57;6.90;42.20
12006;DHT22;6062;47.294;12.182;2022-11-28T09:35:22;7.00;42.00
12006;DHT22;6062;47.294;12.182;2022-11-28T09:37:48;7.00;42.00
12006;DHT22;6062;47.294;12.182;2022-11-28T09:40:16;7.10;42.00
12006;DHT22;6062;47.294;12.182;2022-11-28T09:43:10;7.10;41.90
12006;DHT22;6062;47.294;12.182;2022-11-28T09:45:40;7.10;41.60
12006;DHT22;6062;47.294;12.182;2022-11-28T09:48:32;7.10;41.50
12006;DHT22;6062;47.294;12.182;2022-11-28T09:54:14;7.10;41.80
12006;DHT22;6062;47.294;12.182;2022-11-28T09:56:47;7.10;42.00
12006;DHT22;6062;47.294;12.182;2022-11-28T09:59:26;7.00;42.20
12006;DHT22;6062;47.294;12.182;2022-11-28T10:02:02;7.10;42.50
12006;DHT22;6062;47.294;12.182;2022-11-28T10:10:50;7.00;41.80
12006;DHT22;6062;47.294;12.182;2022-11-28T10:13:55;7.00;41.70
12006;DHT22;6062;47.294;12.182;2022-11-28T10:19:52;7.00;41.60
12006;DHT22;6062;47.294;12.182;2022-11-28T10:22:46;7.00;41.70
12006;DHT22;6062;47.294;12.182;2022-11-28T10:25:29;7.00;41.70
12006;DHT22;6062;47.294;12.182;2022-11-28T10:28:00;7.00;41.10
12006;DHT22;6062;47.294;12.182;2022-11-28T10:30:32;7.00;41.80
12006;DHT22;6062;47.294;12.182;2022-11-28T10:33:22;7.00;40.80
12006;DHT22;6062;47.294;12.182;2022-11-28T10:36:19;6.90;40.80
12006;DHT22;6062;47.294;12.182;2022-11-28T10:38:48;6.80;41.10
12006;DHT22;6062;47.294;12.182;2022-11-28T10:41:29;6.80;41.60
12006;DHT22;6062;47.294;12.182;2022-11-28T10:44:21;6.80;42.00
12006;DHT22;6062;47.294;12.182;2022-11-28T10:47:07;6.80;41.90
12006;DHT22;6062;47.294;12.182;2022-11-28T10:52:43;6.80;41.90
12006;DHT22;6062;47.294;12.182;2022-11-28T10:58:24;6.70;42.20
12006;DHT22;6062;47.294;12.182;2022-11-28T11:00:57;6.70;42.30
12006;DHT22;6062;47.294;12.182;2022-11-28T11:03:32;6.70;42.50
12006;DHT22;6062;47.294;12.182;2022-11-28T11:06:03;6.60;42.80
12006;DHT22;6062;47.294;12.182;2022-11-28T11:08:33;6.60;43.00
12006;DHT22;6062;47.294;12.182;2022-11-28T11:22:25;6.10;44.90
12006;DHT22;6062;47.294;12.182;2022-11-28T11:25:09;6.10;45.70
12006;DHT22;6062;47.294;12.182;2022-11-28T11:27:54;6.10;46.40
12006;DHT22;6062;47.294;12.182;2022-11-28T11:32:53;6.30;46.10
12006;DHT22;6062;47.294;12.182;2022-11-28T11:35:33;6.30;46.10
12006;DHT22;6062;47.294;12.182;2022-11-28T11:40:45;6.50;47.00
12006;DHT22;6062;47.294;12.182;2022-11-28T11:43:29;6.50;47.00
12006;DHT22;6062;47.294;12.182;2022-11-28T11:46:11;6.60;47.70
12006;DHT22;6062;47.294;12.182;2022-11-28T11:48:43;6.70;48.10
12006;DHT22;6062;47.294;12.182;2022-11-28T11:51:23;6.80;48.10
12006;DHT22;6062;47.294;12.182;2022-11-28T11:54:05;6.90;48.20
12006;DHT22;6062;47.294;12.182;2022-11-28T11:56:36;6.90;48.00
12006;DHT22;6062;47.294;12.182;2022-11-28T11:59:10;7.00;47.70
12006;DHT22;6062;47.294;12.182;2022-11-28T12:01:41;7.00;47.80
12006;DHT22;6062;47.294;12.182;2022-11-28T12:04:20;7.10;47.80
12006;DHT22;6062;47.294;12.182;2022-11-28T12:07:25;7.10;47.90
12006;DHT22;6062;47.294;12.182;2022-11-28T12:09:55;7.20;48.00
12006;DHT22;6062;47.294;12.182;2022-11-28T12:12:27;7.20;47.70
12006;DHT22;6062;47.294;12.182;2022-11-28T12:14:55;7.30;47.90
12006;DHT22;6062;47.294;12.182;2022-11-28T12:20:47;7.30;47.80
12006;DHT22;6062;47.294;12.182;2022-11-28T12:23:35;7.30;48.10
12006;DHT22;6062;47.294;12.182;2022-11-28T12:26:33;7.30;48.10
12006;DHT22;6062;47.294;12.182;2022-11-28T12:34:22;7.30;48.10
12006;DHT22;6062;47.294;12.182;2022-11-28T12:46:09;7.20;48.70
12006;DHT22;6062;47.294;12.182;2022-11-28T12:58:07;7.10;49.20
12006;DHT22;6062;47.294;12.182;2022-11-28T13:00:48;7.00;50.20
12006;DHT22;6062;47.294;12.182;2022-11-28T13:09:02;6.90;49.90
12006;DHT22;6062;47.294;12.182;2022-11-28T13:14:55;6.80;50.20
12006;DHT22;6062;47.294;12.182;2022-11-28T13:17:39;6.80;50.10
12006;DHT22;6062;47.294;12.182;2022-11-28T13:20:50;6.70;50.20
12006;DHT22;6062;47.294;12.182;2022-11-28T13:23:26;6.70;50.60
12006;DHT22;6062;47.294;12.182;2022-11-28T13:29:10;6.60;50.60
12006;DHT22;6062;47.294;12.182;2022-11-28T13:32:11;6.60;50.80
12006;DHT22;6062;47.294;12.182;2022-11-28T13:34:47;6.50;50.90
12006;DHT22;6062;47.294;12.182;2022-11-28T13:37:26;6.50;50.70
12006;DHT22;6062;47.294;12.182;2022-11-28T13:45:45;6.40;50.80
12006;DHT22;6062;47.294;12.182;2022-11-28T13:51:01;6.30;51.50
12006;DHT22;6062;47.294;12.182;2022-11-28T13:53:49;6.20;51.00
12006;DHT22;6062;47.294;12.182;2022-11-28T13:57:03;6.20;51.20
12006;DHT22;6062;47.294;12.182;2022-11-28T13:59:32;6.20;51.70
12006;DHT22;6062;47.294;12.182;2022-11-28T14:02:00;6.10;51.50
12006;DHT22;6062;47.294;12.182;2022-11-28T14:04:30;6.10;51.50
12006;DHT22;6062;47.294;12.182;2022-11-28T14:07:03;6.00;51.60
12006;DHT22;6062;47.294;12.182;2022-11-28T14:15:44;5.80;52.50
12006;DHT22;6062;47.294;12.182;2022-11-28T14:19:03;5.80;53.20
12006;DHT22;6062;47.294;12.182;2022-11-28T14:22:03;5.70;52.80
12006;DHT22;6062;47.294;12.182;2022-11-28T14:25:02;5.60;52.90
12006;DHT22;6062;47.294;12.182;2022-11-28T14:27:58;5.50;53.10
12006;DHT22;6062;47.294;12.182;2022-11-28T14:30:36;5.50;53.20
12006;DHT22;6062;47.294;12.182;2022-11-28T14:33:14;5.40;53.30
12006;DHT22;6062;47.294;12.182;2022-11-28T14:38:41;5.30;53.60
12006;DHT22;6062;47.294;12.182;2022-11-28T14:41:09;5.20;53.90
12006;DHT22;6062;47.294;12.182;2022-11-28T14:43:44;5.20;53.60
12006;DHT22;6062;47.294;12.182;2022-11-28T14:46:32;5.20;54.00
12006;DHT22;6062;47.294;12.182;2022-11-28T14:54:39;5.00;54.70
12006;DHT22;6062;47.294;12.182;2022-11-28T14:57:28;5.00;54.70
12006;DHT22;6062;47.294;12.182;2022-11-28T14:59:58;4.90;54.70
12006;DHT22;6062;47.294;12.182;2022-11-28T15:05:45;4.80;54.80
12006;DHT22;6062;47.294;12.182;2022-11-28T15:11:14;4.60;54.70
12006;DHT22;6062;47.294;12.182;2022-11-28T15:14:17;4.60;54.60
12006;DHT22;6062;47.294;12.182;2022-11-28T15:16:50;4.50;55.20
12006;DHT22;6062;47.294;12.182;2022-11-28T15:21:48;4.40;54.90
12006;DHT22;6062;47.294;12.182;2022-11-28T15:26:57;4.30;55.40
12006;DHT22;6062;47.294;12.182;2022-11-28T15:29:52;4.20;55.40
12006;DHT22;6062;47.294;12.182;2022-11-28T15:32:23;4.10;55.60
12006;DHT22;6062;47.294;12.182;2022-11-28T15:35:00;4.10;55.50
12006;DHT22;6062;47.294;12.182;2022-11-28T15:37:32;4.00;55.60
12006;DHT22;6062;47.294;12.182;2022-11-28T15:40:02;3.90;55.70
12006;DHT22;6062;47.294;12.182;2022-11-28T15:42:32;3.90;56.00
12006;DHT22;6062;47.294;12.182;2022-11-28T15:47:50;3.80;56.20
12006;DHT22;6062;47.294;12.182;2022-11-28T15:50:20;3.70;56.80
12006;DHT22;6062;47.294;12.182;2022-11-28T15:52:55;3.60;56.90
12006;DHT22;6062;47.294;12.182;2022-11-28T15:55:31;3.60;57.50
12006;DHT22;6062;47.294;12.182;2022-11-28T15:58:20;3.50;57.70
12006;DHT22;6062;47.294;12.182;2022-11-28T16:01:00;3.40;58.00
12006;DHT22;6062;47.294;12.182;2022-11-28T16:03:36;3.40;57.80
12006;DHT22;6062;47.294;12.182;2022-11-28T16:06:09;3.30;58.00
12006;DHT22;6062;47.294;12.182;2022-11-28T16:08:38;3.30;58.30
12006;DHT22;6062;47.294;12.182;2022-11-28T16:11:15;3.20;58.40
12006;DHT22;6062;47.294;12.182;2022-11-28T16:13:44;3.20;58.70
12006;DHT22;6062;47.294;12.182;2022-11-28T16:16:16;3.10;59.50
12006;DHT22;6062;47.294;12.182;2022-11-28T16:19:05;3.10;59.40
12006;DHT22;6062;47.294;12.182;2022-11-28T16:21:48;3.00;59.70
12006;DHT22;6062;47.294;12.182;2022-11-28T16:24:27;3.00;59.50
12006;DHT22;6062;47.294;12.182;2022-11-28T16:27:03;3.00;59.50
12006;DHT22;6062;47.294;12.182;2022-11-28T16:29:34;2.90;59.60
12006;DHT22;6062;47.294;12.182;2022-11-28T16:32:07;2.90;59.80
12006;DHT22;6062;47.294;12.182;2022-11-28T16:34:54;2.90;59.90
12006;DHT22;6062;47.294;12.182;2022-11-28T16:37:23;2.90;60.20
12006;DHT22;6062;47.294;12.182;2022-11-28T16:42:41;2.80;60.90
12006;DHT22;6062;47.294;12.182;2022-11-28T16:45:23;2.80;60.40
12006;DHT22;6062;47.294;12.182;2022-11-28T16:48:08;2.80;61.30
12006;DHT22;6062;47.294;12.182;2022-11-28T17:01:37;2.80;62.50
12006;DHT22;6062;47.294;12.182;2022-11-28T17:04:04;2.80;62.50
12006;DHT22;6062;47.294;12.182;2022-11-28T17:06:32;2.80;62.40
12006;DHT22;6062;47.294;12.182;2022-11-28T17:09:02;2.80;62.90
12006;DHT22;6062;47.294;12.182;2022-11-28T17:11:33;2.80;62.70
12006;DHT22;6062;47.294;12.182;2022-11-28T17:14:01;2.90;62.90
12006;DHT22;6062;47.294;12.182;2022-11-28T17:16:31;2.90;63.30
12006;DHT22;6062;47.294;12.182;2022-11-28T17:18:58;2.90;63.40
12006;DHT22;6062;47.294;12.182;2022-11-28T17:21:38;2.90;63.00
12006;DHT22;6062;47.294;12.182;2022-11-28T17:24:22;2.90;63.30
12006;DHT22;6062;47.294;12.182;2022-11-28T17:26:51;3.00;63.10
12006;DHT22;6062;47.294;12.182;2022-11-28T17:29:18;3.00;62.90
12006;DHT22;6062;47.294;12.182;2022-11-28T17:31:45;3.00;63.40
12006;DHT22;6062;47.294;12.182;2022-11-28T17:34:23;3.00;63.30
12006;DHT22;6062;47.294;12.182;2022-11-28T17:36:51;3.00;63.40
12006;DHT22;6062;47.294;12.182;2022-11-28T17:39:17;3.00;63.10
12006;DHT22;6062;47.294;12.182;2022-11-28T17:41:44;3.00;63.30
12006;DHT22;6062;47.294;12.182;2022-11-28T17:46:46;3.00;63.30
12006;DHT22;6062;47.294;12.182;2022-11-28T17:49:12;3.00;63.00
12006;DHT22;6062;47.294;12.182;2022-11-28T17:51:39;3.00;63.30
12006;DHT22;6062;47.294;12.182;2022-11-28T17:54:05;3.00;63.50
12006;DHT22;6062;47.294;12.182;2022-11-28T17:56:31;3.00;63.30
12006;DHT22;6062;47.294;12.182;2022-11-28T17:58:58;3.00;63.50
12006;DHT22;6062;47.294;12.182;2022-11-28T18:01:26;3.00;63.70
12006;DHT22;6062;47.294;12.182;2022-11-28T18:03:53;3.00;64.10
12006;DHT22;6062;47.294;12.182;2022-11-28T18:06:19;2.90;63.90
12006;DHT22;6062;47.294;12.182;2022-11-28T18:08:47;2.90;64.10
12006;DHT22;6062;47.294;12.182;2022-11-28T18:11:16;2.90;63.90
12006;DHT22;6062;47.294;12.182;2022-11-28T18:13:43;2.90;64.30
12006;DHT22;6062;47.294;12.182;2022-11-28T18:16:10;2.90;64.30
12006;DHT22;6062;47.294;12.182;2022-11-28T18:18:37;2.90;64.10
12006;DHT22;6062;47.294;12.182;2022-11-28T18:21:05;2.90;64.00
12006;DHT22;6062;47.294;12.182;2022-11-28T18:23:43;2.90;64.10
12006;DHT22;6062;47.294;12.182;2022-11-28T18:26:15;2.90;64.00
12006;DHT22;6062;47.294;12.182;2022-11-28T18:28:43;2.90;64.30
12006;DHT22;6062;47.294;12.182;2022-11-28T18:31:15;2.90;64.00
12006;DHT22;6062;47.294;12.182;2022-11-28T18:33:41;2.90;64.20
12006;DHT22;6062;47.294;12.182;2022-11-28T18:38:34;2.80;64.30
12006;DHT22;6062;47.294;12.182;2022-11-28T18:41:03;2.80;64.30
12006;DHT22;6062;47.294;12.182;2022-11-28T18:43:30;2.80;64.70
12006;DHT22;6062;47.294;12.182;2022-11-28T18:46:02;2.70;64.50
12006;DHT22;6062;47.294;12.182;2022-11-28T18:48:30;2.70;64.90
12006;DHT22;6062;47.294;12.182;2022-11-28T18:50:56;2.70;64.70
12006;DHT22;6062;47.294;12.182;2022-11-28T18:53:22;2.70;64.80
12006;DHT22;6062;47.294;12.182;2022-11-28T18:55:47;2.70;64.80
12006;DHT22;6062;47.294;12.182;2022-11-28T18:58:13;2.70;64.80
12006;DHT22;6062;47.294;12.182;2022-11-28T19:00:38;2.70;65.00
12006;DHT22;6062;47.294;12.182;2022-11-28T19:03:04;2.70;65.00
12006;DHT22;6062;47.294;12.182;2022-11-28T19:05:30;2.70;64.90
12006;DHT22;6062;47.294;12.182;2022-11-28T19:07:56;2.70;64.80
12006;DHT22;6062;47.294;12.182;2022-11-28T19:10:22;2.60;64.90
12006;DHT22;6062;47.294;12.182;2022-11-28T19:12:47;2.70;65.00
12006;DHT22;6062;47.294;12.182;2022-11-28T19:15:13;2.60;65.00
12006;DHT22;6062;47.294;12.182;2022-11-28T19:17:39;2.60;64.90
12006;DHT22;6062;47.294;12.182;2022-11-28T19:20:05;2.70;65.00